createdAt,value
2017-09-10T00:01:22.855Z,82.66
2017-09-10T00:03:52.183Z,82.46
2017-09-10T00:06:21.649Z,82.25
2017-09-10T00:08:50.965Z,82.97
2017-09-10T00:11:20.476Z,82.89
2017-09-10T00:13:49.790Z,82.42
2017-09-10T00:16:19.400Z,82.35
2017-09-10T00:18:48.732Z,82.35
2017-09-10T00:21:18.099Z,82.29
2017-09-10T00:23:47.423Z,83.14
2017-09-10T00:26:16.785Z,82.89
2017-09-10T00:28:46.144Z,82.99
2017-09-10T00:31:15.444Z,83.08
2017-09-10T00:33:44.849Z,83.23
2017-09-10T00:36:14.193Z,83.14
2017-09-10T00:38:43.639Z,83.54
2017-09-10T00:41:13.055Z,83.56
2017-09-10T00:43:42.323Z,83.92
2017-09-10T00:46:11.676Z,84.15
2017-09-10T00:48:40.955Z,83.97
2017-09-10T00:51:10.329Z,84.11
2017-09-10T00:53:39.672Z,84.02
2017-09-10T00:56:09.165Z,83.93
2017-09-10T00:58:38.497Z,83.90
2017-09-10T01:01:08.173Z,84.16
2017-09-10T01:03:37.564Z,84.32
2017-09-10T01:06:07.342Z,84.18
2017-09-10T01:08:36.772Z,84.04
2017-09-10T01:11:06.178Z,84.15
2017-09-10T01:13:35.464Z,83.98
2017-09-10T01:16:04.788Z,84.26
2017-09-10T01:18:34.083Z,84.32
2017-09-10T01:21:03.483Z,84.55
2017-09-10T01:23:32.851Z,84.75
2017-09-10T01:26:02.242Z,84.59
2017-09-10T01:28:31.635Z,84.35
2017-09-10T01:31:01.119Z,83.88
2017-09-10T01:33:30.389Z,84.00
2017-09-10T01:35:59.740Z,84.53
2017-09-10T01:38:29.004Z,84.62
2017-09-10T01:40:58.552Z,85.09
2017-09-10T01:43:29.015Z,84.66
2017-09-10T01:46:01.237Z,84.25
2017-09-10T01:48:30.588Z,84.28
2017-09-10T01:50:59.921Z,84.83
2017-09-10T01:53:29.225Z,84.61
2017-09-10T01:55:58.551Z,84.52
2017-09-10T01:58:27.841Z,84.84
2017-09-10T02:00:57.212Z,84.62
2017-09-10T02:03:26.758Z,84.99
2017-09-10T02:05:56.248Z,84.53
2017-09-10T02:08:25.921Z,84.52
2017-09-10T02:10:55.453Z,84.85
2017-09-10T02:13:24.882Z,84.92
2017-09-10T02:15:54.263Z,85.21
2017-09-10T02:18:23.863Z,84.96
2017-09-10T02:20:53.293Z,84.87
2017-09-10T02:23:22.627Z,85.06
2017-09-10T02:25:52.068Z,84.94
2017-09-10T02:28:21.357Z,84.94
2017-09-10T02:30:50.660Z,85.32
2017-09-10T02:33:20.273Z,85.56
2017-09-10T02:35:49.605Z,85.54
2017-09-10T02:38:19.110Z,85.58
2017-09-10T02:40:48.480Z,85.35
2017-09-10T02:43:17.752Z,85.46
2017-09-10T02:45:47.044Z,85.53
2017-09-10T02:48:16.574Z,85.43
2017-09-10T02:50:45.921Z,85.50
2017-09-10T02:53:15.356Z,85.60
2017-09-10T02:55:44.645Z,85.70
2017-09-10T02:58:13.904Z,85.87
2017-09-10T03:00:43.204Z,86.12
2017-09-10T03:03:12.565Z,86.15
2017-09-10T03:05:41.868Z,86.71
2017-09-10T03:08:11.272Z,86.03
2017-09-10T03:10:40.592Z,85.84
2017-09-10T03:13:09.965Z,86.09
2017-09-10T03:15:39.535Z,86.28
2017-09-10T03:18:08.804Z,86.55
2017-09-10T03:20:38.145Z,86.34
2017-09-10T03:23:07.612Z,86.49
2017-09-10T03:25:36.903Z,86.50
2017-09-10T03:28:06.180Z,86.61
2017-09-10T03:30:35.498Z,86.50
2017-09-10T03:33:04.824Z,86.37
2017-09-10T03:35:34.331Z,86.17
2017-09-10T03:38:03.629Z,86.35
2017-09-10T03:40:32.921Z,86.42
2017-09-10T03:43:02.200Z,86.49
2017-09-10T03:45:31.924Z,86.96
2017-09-10T03:48:01.229Z,86.84
2017-09-10T03:50:30.968Z,86.74
2017-09-10T03:53:00.348Z,87.04
2017-09-10T03:55:29.740Z,87.08
2017-09-10T03:57:59.082Z,87.04
2017-09-10T04:00:28.545Z,86.97
2017-09-10T04:02:57.928Z,86.89
2017-09-10T04:05:27.293Z,86.97
2017-09-10T04:07:56.784Z,86.96
2017-09-10T04:10:26.268Z,86.88
2017-09-10T04:12:55.541Z,86.87
2017-09-10T04:15:24.975Z,87.31
2017-09-10T04:17:54.452Z,87.24
2017-09-10T04:20:23.768Z,87.21
2017-09-10T04:22:53.261Z,87.42
2017-09-10T04:25:22.772Z,87.34
2017-09-10T04:27:52.573Z,87.43
2017-09-10T04:30:22.020Z,87.25
2017-09-10T04:32:51.304Z,87.20
2017-09-10T04:35:20.706Z,87.54
2017-09-10T04:37:50.224Z,87.07
2017-09-10T04:40:22.551Z,87.30
2017-09-10T04:42:51.880Z,87.63
2017-09-10T04:45:21.267Z,87.50
2017-09-10T04:47:50.888Z,87.65
2017-09-10T04:50:20.284Z,87.70
2017-09-10T04:52:49.736Z,87.80
2017-09-10T04:55:19.121Z,87.50
2017-09-10T04:57:48.476Z,87.58
2017-09-10T05:00:17.947Z,87.85
2017-09-10T05:02:47.372Z,87.72
2017-09-10T05:05:17.409Z,87.46
2017-09-10T05:07:47.480Z,87.29
2017-09-10T05:10:16.777Z,87.53
2017-09-10T05:12:46.225Z,87.38
2017-09-10T05:15:15.565Z,87.38
2017-09-10T05:17:44.893Z,88.04
2017-09-10T05:20:14.202Z,88.14
2017-09-10T05:22:43.773Z,88.18
2017-09-10T05:25:13.173Z,87.96
2017-09-10T05:27:42.816Z,87.92
2017-09-10T05:30:12.210Z,88.22
2017-09-10T05:32:41.727Z,87.96
2017-09-10T05:35:11.159Z,87.97
2017-09-10T05:37:41.457Z,88.24
2017-09-10T05:40:11.021Z,87.61
2017-09-10T05:42:40.293Z,87.96
2017-09-10T05:45:09.649Z,87.72
2017-09-10T05:47:39.079Z,87.53
2017-09-10T05:50:08.608Z,88.06
2017-09-10T05:52:38.296Z,87.58
2017-09-10T05:55:07.616Z,87.25
2017-09-10T05:57:36.947Z,87.06
2017-09-10T06:00:06.429Z,86.31
2017-09-10T06:02:35.788Z,85.96
2017-09-10T06:05:05.104Z,85.42
2017-09-10T06:07:34.372Z,85.19
2017-09-10T06:10:04.549Z,85.04
2017-09-10T06:12:33.974Z,84.91
2017-09-10T06:15:03.451Z,85.03
2017-09-10T06:17:32.762Z,84.78
2017-09-10T06:20:02.383Z,84.79
2017-09-10T06:22:31.833Z,84.63
2017-09-10T06:25:01.228Z,84.82
2017-09-10T06:27:32.681Z,84.83
2017-09-10T06:30:03.065Z,84.95
2017-09-10T06:32:32.597Z,84.68
2017-09-10T06:35:01.928Z,84.58
2017-09-10T06:37:31.349Z,84.26
2017-09-10T06:40:00.779Z,84.23
2017-09-10T06:42:30.241Z,84.19
2017-09-10T06:44:59.503Z,83.84
2017-09-10T06:47:28.989Z,83.47
2017-09-10T06:49:58.332Z,82.40
2017-09-10T06:52:27.894Z,82.62
2017-09-10T06:54:57.354Z,81.81
2017-09-10T06:57:27.102Z,81.82
2017-09-10T06:59:56.505Z,81.58
2017-09-10T07:02:25.869Z,82.19
2017-09-10T07:05:06.901Z,81.51
2017-09-10T07:07:36.224Z,80.80
2017-09-10T07:10:06.891Z,81.03
2017-09-10T07:12:38.375Z,80.77
2017-09-10T07:15:10.760Z,81.00
2017-09-10T07:17:40.093Z,80.75
2017-09-10T07:20:10.008Z,79.30
2017-09-10T07:22:40.300Z,79.37
2017-09-10T07:25:27.248Z,79.83
2017-09-10T07:30:48.212Z,78.89
2017-09-10T07:33:17.621Z,79.13
2017-09-10T07:35:47.025Z,78.16
2017-09-10T07:38:16.338Z,77.39
2017-09-10T07:40:45.997Z,77.97
2017-09-10T07:43:15.371Z,78.34
2017-09-10T07:45:44.793Z,77.49
2017-09-10T07:48:14.119Z,77.80
2017-09-10T07:50:50.613Z,78.14
2017-09-10T07:53:20.461Z,78.05
2017-09-10T07:56:01.016Z,76.31
2017-09-10T07:58:30.407Z,76.84
2017-09-10T08:01:00.055Z,76.90
2017-09-10T08:03:29.349Z,76.21
2017-09-10T08:05:58.724Z,75.92
2017-09-10T08:08:28.102Z,76.35
2017-09-10T08:10:57.500Z,77.70
2017-09-10T08:13:26.823Z,76.74
2017-09-10T08:15:56.176Z,77.91
2017-09-10T08:18:25.503Z,77.14
2017-09-10T08:20:54.811Z,76.46
2017-09-10T08:23:24.118Z,75.87
2017-09-10T08:25:53.613Z,76.93
2017-09-10T08:28:22.990Z,75.87
2017-09-10T08:30:54.050Z,73.70
2017-09-10T08:33:23.352Z,73.63
2017-09-10T08:35:54.266Z,73.24
2017-09-10T08:38:25.776Z,74.90
2017-09-10T08:40:55.515Z,74.04
2017-09-10T08:43:25.096Z,72.62
2017-09-10T08:45:56.570Z,72.89
2017-09-10T08:48:26.353Z,73.72
2017-09-10T08:50:59.955Z,73.44
2017-09-10T08:53:29.916Z,72.79
2017-09-10T08:55:59.339Z,72.46
2017-09-10T08:58:28.641Z,73.91
2017-09-10T09:00:58.250Z,72.35
2017-09-10T09:03:29.036Z,72.71
2017-09-10T09:05:58.568Z,71.35
2017-09-10T09:08:29.056Z,71.15
2017-09-10T09:10:58.856Z,70.08
2017-09-10T09:13:28.292Z,70.79
2017-09-10T09:15:57.658Z,70.40
2017-09-10T09:18:27.088Z,70.56
2017-09-10T09:20:56.481Z,72.16
2017-09-10T09:23:25.896Z,70.43
2017-09-10T09:25:55.309Z,70.32
2017-09-10T09:28:24.823Z,69.54
2017-09-10T09:30:54.337Z,67.87
2017-09-10T09:33:23.657Z,67.16
2017-09-10T09:35:53.052Z,67.78
2017-09-10T09:38:23.290Z,69.32
2017-09-10T09:40:52.623Z,67.93
2017-09-10T09:43:21.876Z,64.59
2017-09-10T09:45:51.280Z,64.03
2017-09-10T09:48:20.627Z,63.17
2017-09-10T09:50:50.292Z,61.66
2017-09-10T09:53:19.828Z,59.80
2017-09-10T09:55:49.246Z,58.28
2017-09-10T09:58:18.575Z,57.88
2017-09-10T10:00:48.484Z,56.01
2017-09-10T10:03:18.320Z,53.32
2017-09-10T10:05:47.821Z,50.59
2017-09-10T10:08:17.294Z,49.06
2017-09-10T10:10:46.736Z,51.41
2017-09-10T10:13:16.613Z,51.50
2017-09-10T10:15:46.291Z,49.99
2017-09-10T10:18:15.913Z,46.91
2017-09-10T10:20:45.269Z,46.23
2017-09-10T10:23:14.565Z,38.94
2017-09-10T10:25:43.933Z,38.08
2017-09-10T10:28:13.498Z,35.87
2017-09-10T10:30:42.783Z,39.81
2017-09-10T10:33:12.132Z,41.91
2017-09-10T10:35:42.596Z,43.45
2017-09-10T10:38:12.617Z,43.81
2017-09-10T10:40:42.713Z,42.44
2017-09-10T10:43:12.405Z,45.07
2017-09-10T10:45:41.895Z,46.09
2017-09-10T10:48:11.687Z,49.63
2017-09-10T10:50:42.093Z,49.89
2017-09-10T10:53:11.396Z,51.75
2017-09-10T10:55:42.033Z,53.82
2017-09-10T10:58:11.428Z,54.70
2017-09-10T11:00:42.264Z,58.15
2017-09-10T11:03:12.373Z,56.95
2017-09-10T11:05:41.796Z,58.31
2017-09-10T11:08:15.433Z,56.66
2017-09-10T11:10:45.288Z,58.17
2017-09-10T11:13:14.693Z,58.45
2017-09-10T11:15:44.204Z,58.77
2017-09-10T11:18:13.685Z,59.04
2017-09-10T11:20:43.534Z,61.68
2017-09-10T11:23:12.928Z,59.73
2017-09-10T11:25:42.553Z,58.75
2017-09-10T11:28:11.904Z,60.62
2017-09-10T11:30:41.266Z,60.94
2017-09-10T11:33:10.615Z,61.96
2017-09-10T11:35:40.027Z,63.13
2017-09-10T11:38:09.847Z,64.39
2017-09-10T11:40:39.257Z,61.29
2017-09-10T11:43:08.644Z,63.90
2017-09-10T11:45:38.149Z,61.99
2017-09-10T11:48:08.969Z,61.56
2017-09-10T11:50:39.022Z,62.88
2017-09-10T11:53:08.837Z,62.31
2017-09-10T11:55:38.485Z,61.92
2017-09-10T11:58:08.177Z,65.86
2017-09-10T12:00:38.580Z,62.67
2017-09-10T12:03:08.105Z,62.20
2017-09-10T12:05:37.489Z,63.72
2017-09-10T12:08:08.278Z,63.17
2017-09-10T12:10:37.795Z,61.52
2017-09-10T12:13:07.643Z,61.96
2017-09-10T12:15:41.031Z,63.92
2017-09-10T12:18:13.631Z,58.60
2017-09-10T12:20:48.073Z,62.95
2017-09-10T12:23:17.477Z,59.32
2017-09-10T12:25:47.111Z,60.58
2017-09-10T12:28:16.613Z,60.25
2017-09-10T12:30:46.250Z,58.29
2017-09-10T12:33:15.653Z,58.89
2017-09-10T12:35:44.961Z,59.36
2017-09-10T12:38:14.269Z,62.72
2017-09-10T12:40:43.700Z,61.22
2017-09-10T12:43:13.018Z,60.75
2017-09-10T12:45:42.561Z,60.22
2017-09-10T12:48:11.984Z,61.78
2017-09-10T12:50:41.813Z,60.99
2017-09-10T12:53:11.117Z,61.31
2017-09-10T12:55:40.828Z,64.46
2017-09-10T12:58:11.270Z,62.00
2017-09-10T13:00:41.418Z,60.70
2017-09-10T13:03:11.164Z,62.38
2017-09-10T13:05:40.546Z,62.21
2017-09-10T13:08:09.876Z,61.29
2017-09-10T13:10:46.020Z,62.23
2017-09-10T13:13:15.511Z,62.95
2017-09-10T13:15:44.884Z,65.37
2017-09-10T13:18:17.168Z,64.15
2017-09-10T13:20:46.666Z,65.37
2017-09-10T13:23:16.112Z,63.65
2017-09-10T13:25:45.719Z,67.21
2017-09-10T13:28:17.711Z,64.21
2017-09-10T13:30:47.844Z,64.00
2017-09-10T13:33:18.479Z,64.95
2017-09-10T13:35:48.228Z,68.26
2017-09-10T13:38:17.648Z,63.70
2017-09-10T13:40:47.026Z,64.27
2017-09-10T13:45:49.566Z,64.67
2017-09-10T13:48:19.008Z,63.82
2017-09-10T13:50:48.413Z,63.43
2017-09-10T13:53:18.372Z,63.29
2017-09-10T13:55:47.851Z,63.63
2017-09-10T13:58:17.851Z,63.45
2017-09-10T14:00:47.326Z,60.26
2017-09-10T14:03:16.976Z,60.41
2017-09-10T14:05:47.056Z,62.45
2017-09-10T14:08:17.260Z,64.54
2017-09-10T14:10:47.140Z,63.41
2017-09-10T14:13:16.694Z,61.20
2017-09-10T14:15:46.481Z,60.55
2017-09-10T14:18:21.356Z,61.10
2017-09-10T14:20:51.002Z,61.56
2017-09-10T14:23:20.748Z,62.03
2017-09-10T14:25:50.419Z,61.69
2017-09-10T14:28:19.936Z,62.64
2017-09-10T14:30:49.271Z,62.08
2017-09-10T14:33:18.675Z,64.08
2017-09-10T14:35:48.577Z,63.78
2017-09-10T14:38:18.401Z,63.21
2017-09-10T14:40:48.153Z,63.20
2017-09-10T14:43:17.550Z,63.30
2017-09-10T14:45:47.152Z,62.15
2017-09-10T14:48:16.704Z,60.84
2017-09-10T14:50:46.717Z,62.82
2017-09-10T14:55:44.652Z,61.86
2017-09-10T14:58:14.179Z,63.34
2017-09-10T15:00:43.991Z,63.94
2017-09-10T15:03:13.596Z,64.99
2017-09-10T15:05:42.912Z,66.42
2017-09-10T15:08:12.318Z,65.29
2017-09-10T15:10:41.800Z,66.41
2017-09-10T15:13:11.734Z,64.34
2017-09-10T15:15:41.183Z,64.20
2017-09-10T15:18:14.381Z,66.89
2017-09-10T15:20:45.326Z,65.57
2017-09-10T15:23:18.849Z,64.96
2017-09-10T15:25:48.339Z,67.59
2017-09-10T15:28:19.287Z,67.67
2017-09-10T15:30:49.412Z,65.26
2017-09-10T15:33:18.888Z,66.54
2017-09-10T15:35:48.236Z,65.83
2017-09-10T15:38:17.597Z,69.93
2017-09-10T15:40:47.491Z,66.57
2017-09-10T15:43:17.344Z,67.95
2017-09-10T15:45:46.821Z,65.99
2017-09-10T15:48:16.152Z,69.35
2017-09-10T15:50:45.537Z,66.80
2017-09-10T15:53:15.237Z,68.88
2017-09-10T15:55:44.803Z,68.31
2017-09-10T15:58:14.985Z,67.91
2017-09-10T16:00:45.702Z,66.62
2017-09-10T16:03:16.011Z,70.02
2017-09-10T16:05:45.486Z,67.32
2017-09-10T16:08:14.977Z,70.97
2017-09-10T16:10:44.633Z,71.30
2017-09-10T16:13:13.983Z,72.07
2017-09-10T16:15:43.319Z,70.96
2017-09-10T16:18:12.977Z,73.14
2017-09-10T16:20:42.571Z,72.47
2017-09-10T16:23:11.917Z,74.21
2017-09-10T16:25:41.357Z,74.17
2017-09-10T16:28:11.321Z,73.49
2017-09-10T16:30:40.671Z,73.95
2017-09-10T16:33:09.985Z,74.44
2017-09-10T16:35:39.373Z,71.69
2017-09-10T16:38:08.693Z,71.23
2017-09-10T16:40:38.048Z,70.91
2017-09-10T16:43:07.372Z,71.67
2017-09-10T16:45:36.734Z,72.23
2017-09-10T16:48:06.226Z,73.56
2017-09-10T16:50:36.392Z,74.10
2017-09-10T16:53:05.719Z,73.95
2017-09-10T16:55:36.667Z,74.42
2017-09-10T16:58:09.875Z,75.14
2017-09-10T17:00:39.384Z,74.46
2017-09-10T17:03:08.731Z,75.15
2017-09-10T17:05:38.510Z,75.69
2017-09-10T17:08:09.618Z,75.71
2017-09-10T17:10:39.085Z,75.36
2017-09-10T17:13:08.491Z,73.97
2017-09-10T17:15:37.976Z,75.19
2017-09-10T17:18:08.561Z,75.34
2017-09-10T17:20:37.997Z,75.90
2017-09-10T17:23:07.312Z,75.31
2017-09-10T17:25:36.645Z,74.94
2017-09-10T17:28:07.382Z,76.12
2017-09-10T17:30:42.201Z,75.70
2017-09-10T17:33:11.657Z,76.08
2017-09-10T17:35:41.045Z,77.16
2017-09-10T17:38:10.375Z,76.14
2017-09-10T17:40:39.781Z,76.24
2017-09-10T17:43:10.139Z,77.19
2017-09-10T17:45:39.535Z,76.55
2017-09-10T17:48:11.866Z,76.39
2017-09-10T17:50:45.112Z,76.77
2017-09-10T17:53:14.658Z,77.84
2017-09-10T17:55:46.931Z,77.62
2017-09-10T17:58:16.300Z,77.40
2017-09-10T18:00:45.822Z,77.29
2017-09-10T18:03:15.392Z,77.74
2017-09-10T18:05:45.007Z,78.27
2017-09-10T18:08:14.637Z,78.20
2017-09-10T18:10:44.324Z,77.85
2017-09-10T18:13:13.972Z,77.83
2017-09-10T18:15:43.535Z,78.44
2017-09-10T18:18:13.790Z,78.13
2017-09-10T18:20:43.423Z,77.80
2017-09-10T18:23:13.524Z,78.49
2017-09-10T18:25:49.684Z,78.76
2017-09-10T18:28:19.532Z,79.21
2017-09-10T18:30:56.230Z,79.17
2017-09-10T18:33:25.864Z,78.97
2017-09-10T18:35:55.708Z,79.31
2017-09-10T18:38:25.161Z,79.86
2017-09-10T18:40:54.520Z,79.80
2017-09-10T18:43:23.851Z,79.91
2017-09-10T18:45:53.174Z,80.19
2017-09-10T18:48:22.561Z,80.19
2017-09-10T18:50:51.880Z,81.16
2017-09-10T18:53:21.173Z,80.93
2017-09-10T18:55:51.470Z,80.40
2017-09-10T18:58:20.848Z,80.46
2017-09-10T19:00:50.181Z,80.23
2017-09-10T19:03:19.591Z,80.19
2017-09-10T19:05:49.025Z,81.16
2017-09-10T19:08:18.501Z,81.66
2017-09-10T19:10:48.500Z,81.13
2017-09-10T19:13:17.952Z,80.82
2017-09-10T19:15:47.329Z,81.80
2017-09-10T19:18:17.098Z,81.66
2017-09-10T19:20:46.590Z,81.27
2017-09-10T19:23:16.047Z,81.99
2017-09-10T19:25:55.261Z,81.94
2017-09-10T19:28:26.688Z,81.71
2017-09-10T19:30:56.218Z,81.63
2017-09-10T19:33:25.610Z,81.33
2017-09-10T19:35:55.396Z,81.85
2017-09-10T19:38:24.804Z,81.92
2017-09-10T19:40:55.285Z,81.80
2017-09-10T19:43:24.602Z,82.58
2017-09-10T19:45:54.072Z,82.07
2017-09-10T19:48:23.482Z,82.09
2017-09-10T19:50:52.902Z,82.84
2017-09-10T19:53:22.365Z,82.76
2017-09-10T19:55:51.743Z,82.47
2017-09-10T19:58:21.198Z,82.27
2017-09-10T20:00:50.592Z,82.96
2017-09-10T20:03:19.918Z,82.70
2017-09-10T20:05:49.315Z,83.11
2017-09-10T20:08:18.729Z,83.20
2017-09-10T20:10:48.228Z,82.58
2017-09-10T20:13:17.609Z,82.40
2017-09-10T20:15:46.957Z,82.29
2017-09-10T20:18:16.556Z,83.26
2017-09-10T20:20:45.864Z,82.24
2017-09-10T20:23:15.536Z,82.25
2017-09-10T20:25:44.929Z,82.15
2017-09-10T20:28:14.786Z,82.42
2017-09-10T20:30:45.021Z,82.45
2017-09-10T20:33:14.827Z,82.62
2017-09-10T20:35:44.759Z,82.70
2017-09-10T20:38:14.739Z,82.52
2017-09-10T20:40:44.789Z,82.84
2017-09-10T20:43:14.478Z,82.89
2017-09-10T20:45:44.077Z,83.11
2017-09-10T20:48:13.602Z,83.01
2017-09-10T20:50:43.380Z,82.88
2017-09-10T20:53:12.929Z,83.11
2017-09-10T20:55:42.649Z,82.93
2017-09-10T20:58:12.210Z,83.20
2017-09-10T21:00:42.303Z,83.19
2017-09-10T21:03:11.699Z,82.61
2017-09-10T21:05:41.488Z,82.81
2017-09-10T21:08:11.537Z,82.44
2017-09-10T21:10:41.096Z,82.68
2017-09-10T21:13:13.233Z,82.88
2017-09-10T21:15:43.375Z,82.95
2017-09-10T21:18:13.165Z,82.92
2017-09-10T21:20:43.626Z,83.30
2017-09-10T21:23:13.201Z,82.82
2017-09-10T21:25:42.630Z,82.92
2017-09-10T21:28:12.217Z,82.93
2017-09-10T21:30:41.681Z,83.42
2017-09-10T21:33:12.062Z,82.82
2017-09-10T21:35:41.521Z,83.77
2017-09-10T21:38:10.918Z,83.22
2017-09-10T21:40:40.954Z,83.34
2017-09-10T21:43:10.494Z,83.64
2017-09-10T21:45:41.041Z,83.63
2017-09-10T21:51:19.672Z,83.58
2017-09-10T21:53:49.078Z,83.48
2017-09-10T21:56:18.504Z,83.76
2017-09-10T21:58:47.935Z,83.42
2017-09-10T22:01:20.441Z,83.79
2017-09-10T22:03:50.288Z,83.80
2017-09-10T22:06:20.253Z,83.57
2017-09-10T22:08:49.760Z,83.67
2017-09-10T22:11:19.630Z,83.74
2017-09-10T22:13:49.227Z,83.62
2017-09-10T22:16:18.728Z,83.64
2017-09-10T22:18:48.425Z,83.50
2017-09-10T22:21:17.851Z,83.48
2017-09-10T22:23:48.094Z,83.47
2017-09-10T22:26:17.513Z,83.71
2017-09-10T22:28:46.895Z,83.73
2017-09-10T22:31:17.318Z,83.84
2017-09-10T22:33:46.723Z,83.58
2017-09-10T22:36:16.095Z,83.91
2017-09-10T22:38:45.428Z,83.88
2017-09-10T22:41:14.779Z,83.57
2017-09-10T22:43:44.125Z,83.46
2017-09-10T22:46:13.471Z,83.72
2017-09-10T22:48:44.752Z,83.63
2017-09-10T22:51:14.642Z,83.53
2017-09-10T22:53:44.041Z,83.39
2017-09-10T22:56:14.439Z,84.28
2017-09-10T22:58:43.892Z,83.99
2017-09-10T23:01:13.448Z,83.57
2017-09-10T23:03:42.711Z,83.72
2017-09-10T23:06:12.440Z,84.07
2017-09-10T23:08:41.763Z,83.83
2017-09-10T23:11:11.776Z,84.12
2017-09-10T23:13:41.233Z,84.05
2017-09-10T23:16:10.573Z,84.32
2017-09-10T23:18:40.045Z,84.24
2017-09-10T23:21:09.552Z,83.86
2017-09-10T23:23:38.833Z,84.23
2017-09-10T23:26:08.491Z,84.30
2017-09-10T23:28:37.849Z,84.25
2017-09-10T23:31:07.358Z,84.53
2017-09-10T23:33:36.783Z,84.38
2017-09-10T23:36:06.412Z,84.35
2017-09-10T23:38:35.858Z,84.12
2017-09-10T23:41:05.404Z,84.04
2017-09-10T23:43:35.083Z,83.91
2017-09-10T23:46:04.616Z,83.81
2017-09-10T23:48:33.964Z,83.56
2017-09-10T23:51:03.441Z,83.45
2017-09-10T23:53:32.940Z,83.49
2017-09-10T23:56:02.304Z,83.31
2017-09-10T23:58:31.708Z,83.28
